Time;durP1;ratioP1;P1;durP2;ratioP2;P2;SDS_P1;SDS_P2;PMS_P1;PMS_P2;Temp;Humidity;BMP_temperature;BMP_pressure;BME280_temperature;BME280_humidity;BME280_pressure;Samples;Min_cycle;Max_cycle;Signal;HPM_P1;HPM_P2
2022/02/26 00:01:01;;;;;;;13.73;4.00;;;3.70;99.90;;;;;;5015810;28;20727;-56
2022/02/26 00:03:28;;;;;;;10.13;4.03;;;3.60;99.90;;;;;;5015660;28;20629;-57
2022/02/26 00:05:55;;;;;;;9.37;5.00;;;3.60;99.90;;;;;;5020633;28;20295;-55
2022/02/26 00:08:22;;;;;;;10.60;3.37;;;3.80;99.90;;;;;;5020326;28;20643;-55
2022/02/26 00:10:49;;;;;;;11.27;3.83;;;4.00;99.90;;;;;;5017507;28;20486;-57
2022/02/26 00:13:16;;;;;;;16.80;3.57;;;4.00;99.90;;;;;;5015277;28;20226;-57
2022/02/26 00:15:43;;;;;;;7.90;3.23;;;4.10;99.90;;;;;;5018577;28;20310;-58
2022/02/26 00:18:09;;;;;;;11.10;3.40;;;4.20;99.90;;;;;;5013298;28;20200;-59
2022/02/26 00:20:39;;;;;;;14.90;4.20;;;4.10;99.90;;;;;;5018627;28;20216;-59
2022/02/26 00:23:05;;;;;;;14.07;4.30;;;4.10;99.90;;;;;;5018176;28;20209;-59
2022/02/26 00:25:33;;;;;;;14.67;3.70;;;4.00;99.90;;;;;;5020520;28;20323;-55
2022/02/26 00:27:59;;;;;;;12.80;3.33;;;3.90;99.90;;;;;;5022022;28;20226;-58
2022/02/26 00:30:26;;;;;;;9.27;3.80;;;3.70;99.90;;;;;;5019217;28;20290;-61
2022/02/26 00:32:54;;;;;;;12.10;3.87;;;3.60;99.90;;;;;;5019728;28;20319;-58
2022/02/26 00:35:20;;;;;;;16.07;3.87;;;3.40;99.90;;;;;;5018757;28;20638;-59
2022/02/26 00:37:47;;;;;;;13.60;3.83;;;3.30;99.90;;;;;;5015447;28;20739;-60
2022/02/26 00:40:14;;;;;;;10.23;4.27;;;3.20;99.90;;;;;;5014941;28;22643;-61
2022/02/26 00:42:41;;;;;;;12.57;4.47;;;3.10;99.90;;;;;;5016858;28;20217;-59
2022/02/26 00:45:08;;;;;;;5.83;2.90;;;2.90;99.90;;;;;;5018612;28;20240;-59
2022/02/26 00:47:35;;;;;;;9.93;4.20;;;2.80;99.90;;;;;;5018615;28;20434;-58
2022/02/26 00:50:06;;;;;;;14.67;3.93;;;2.70;99.90;;;;;;5017902;28;20727;-58
2022/02/26 00:52:35;;;;;;;13.23;4.10;;;3.20;99.90;;;;;;5018279;28;20286;-59
2022/02/26 00:55:04;;;;;;;11.83;4.70;;;3.20;99.90;;;;;;5019988;28;20702;-57
2022/02/26 00:57:31;;;;;;;13.00;6.17;;;3.30;99.90;;;;;;5011279;28;20213;-60
2022/02/26 00:59:58;;;;;;;10.43;3.90;;;3.20;99.90;;;;;;5022017;28;20264;-60
2022/02/26 01:02:26;;;;;;;12.43;3.97;;;3.30;99.90;;;;;;5023085;28;22180;-60
2022/02/26 01:04:53;;;;;;;11.07;3.43;;;3.40;99.90;;;;;;5019032;28;20240;-61
2022/02/26 01:07:20;;;;;;;14.70;4.00;;;3.50;99.90;;;;;;5017976;28;20635;-59
2022/02/26 01:09:47;;;;;;;11.07;4.43;;;3.50;99.90;;;;;;5018832;28;20228;-57
2022/02/26 01:12:14;;;;;;;14.93;4.53;;;3.60;99.90;;;;;;5019016;28;21022;-59
2022/02/26 01:14:42;;;;;;;9.13;3.77;;;3.40;99.90;;;;;;5026031;28;20706;-57
2022/02/26 01:17:11;;;;;;;12.13;4.10;;;3.60;99.90;;;;;;5019606;28;20212;-58
2022/02/26 01:19:40;;;;;;;17.47;4.57;;;3.60;99.90;;;;;;5018835;28;20320;-57
2022/02/26 01:22:07;;;;;;;15.00;5.23;;;3.60;99.90;;;;;;5018056;28;20581;-58
2022/02/26 01:24:34;;;;;;;9.43;4.90;;;3.60;99.90;;;;;;5021271;28;20284;-56
2022/02/26 01:27:03;;;;;;;12.47;3.67;;;3.60;99.90;;;;;;5022054;28;20649;-56
2022/02/26 01:29:30;;;;;;;14.33;4.33;;;3.40;99.90;;;;;;5026052;28;20399;-55
2022/02/26 01:31:59;;;;;;;10.73;4.60;;;3.40;99.90;;;;;;5026078;28;20208;-57
2022/02/26 01:34:32;;;;;;;16.20;4.57;;;3.40;99.90;;;;;;5013154;28;20898;-57
2022/02/26 01:37:02;;;;;;;16.47;4.63;;;3.50;99.90;;;;;;5014749;28;20206;-54
2022/02/26 01:39:29;;;;;;;16.63;4.13;;;3.30;99.90;;;;;;5020239;28;20239;-53
2022/02/26 01:41:57;;;;;;;17.00;4.43;;;3.20;99.90;;;;;;5018772;28;20204;-53
2022/02/26 01:44:24;;;;;;;10.70;4.10;;;3.30;99.90;;;;;;5019563;28;20308;-55
2022/02/26 01:46:51;;;;;;;11.20;4.50;;;3.20;99.90;;;;;;5024059;28;20569;-55
2022/02/26 01:49:18;;;;;;;13.90;4.20;;;3.30;99.90;;;;;;5020994;28;20215;-54
2022/02/26 01:51:46;;;;;;;12.43;4.87;;;3.40;99.90;;;;;;5016328;28;20265;-55
2022/02/26 01:54:13;;;;;;;9.57;4.20;;;3.50;99.90;;;;;;5015807;28;20212;-55
2022/02/26 01:56:41;;;;;;;13.07;4.50;;;3.40;99.90;;;;;;5017109;28;20204;-55
2022/02/26 01:59:08;;;;;;;13.37;3.90;;;3.40;99.90;;;;;;5013687;28;20262;-54
2022/02/26 02:01:35;;;;;;;9.80;4.23;;;3.40;99.90;;;;;;5021677;28;20245;-56
2022/02/26 02:04:03;;;;;;;15.30;4.80;;;3.40;99.90;;;;;;5020011;28;20228;-56
2022/02/26 02:06:30;;;;;;;14.67;4.57;;;3.40;99.90;;;;;;5020328;28;20808;-54
2022/02/26 02:08:57;;;;;;;13.93;4.33;;;3.30;99.90;;;;;;5023179;28;20370;-54
2022/02/26 02:11:24;;;;;;;8.70;3.87;;;3.20;99.90;;;;;;5022070;28;20208;-53
2022/02/26 02:13:52;;;;;;;11.17;4.23;;;2.90;99.90;;;;;;5020728;28;20257;-55
2022/02/26 02:16:19;;;;;;;13.53;4.90;;;2.70;99.90;;;;;;5022230;28;20255;-55
2022/02/26 02:18:46;;;;;;;12.90;5.33;;;2.90;99.90;;;;;;5018579;28;20717;-55
2022/02/26 02:21:13;;;;;;;15.67;5.00;;;2.90;99.90;;;;;;5020918;28;20254;-54
2022/02/26 02:23:41;;;;;;;15.03;5.10;;;2.80;99.90;;;;;;5023102;28;20206;-54
2022/02/26 02:26:09;;;;;;;10.53;5.10;;;2.60;99.90;;;;;;5023309;28;20201;-55
2022/02/26 02:28:37;;;;;;;15.10;4.37;;;2.70;99.90;;;;;;5025771;28;20371;-54
2022/02/26 02:31:05;;;;;;;20.00;4.30;;;2.90;99.90;;;;;;5023144;28;20335;-55
2022/02/26 02:33:44;;;;;;;8.23;4.23;;;2.90;99.90;;;;;;5024465;28;20229;-55
2022/02/26 02:36:10;;;;;;;12.40;4.53;;;2.70;99.90;;;;;;5040128;28;20299;-57
2022/02/26 02:38:37;;;;;;;8.50;4.77;;;2.80;99.90;;;;;;5021666;28;20212;-56
2022/02/26 02:41:05;;;;;;;16.33;5.33;;;2.90;99.90;;;;;;5022846;28;20310;-55
2022/02/26 02:43:32;;;;;;;10.57;5.23;;;2.90;99.90;;;;;;5037303;28;20210;-54
2022/02/26 02:45:59;;;;;;;11.40;5.00;;;3.00;99.90;;;;;;5021250;28;20204;-55
2022/02/26 02:48:27;;;;;;;10.20;4.90;;;3.00;99.90;;;;;;5020012;28;20695;-55
2022/02/26 02:50:54;;;;;;;11.17;4.83;;;3.00;99.90;;;;;;5017674;28;20205;-55
2022/02/26 02:53:22;;;;;;;14.60;5.40;;;2.80;99.90;;;;;;5014937;28;20636;-55
2022/02/26 02:55:50;;;;;;;14.47;5.60;;;2.50;99.90;;;;;;5022572;28;20196;-54
2022/02/26 02:58:26;;;;;;;14.57;5.60;;;2.60;99.90;;;;;;4998810;28;20232;-54
2022/02/26 03:00:55;;;;;;;12.60;5.67;;;2.80;99.90;;;;;;5015165;28;20257;-56
2022/02/26 03:03:25;;;;;;;10.90;6.00;;;2.80;99.90;;;;;;5016723;28;20226;-55
2022/02/26 03:05:53;;;;;;;15.77;5.90;;;2.50;99.90;;;;;;5014236;28;20271;-55
2022/02/26 03:08:23;;;;;;;11.33;5.97;;;2.50;99.90;;;;;;5014235;28;20603;-55
2022/02/26 03:10:51;;;;;;;14.70;5.70;;;2.70;99.90;;;;;;5014844;28;20241;-55
2022/02/26 03:13:20;;;;;;;8.47;5.20;;;2.60;99.90;;;;;;5016690;28;20466;-55
2022/02/26 03:15:48;;;;;;;18.00;6.23;;;2.30;99.90;;;;;;5015481;28;20215;-54
2022/02/26 03:18:16;;;;;;;9.13;5.07;;;2.00;99.90;;;;;;5016541;28;20193;-57
2022/02/26 03:20:44;;;;;;;9.83;5.13;;;1.90;99.90;;;;;;5014872;28;20321;-54
2022/02/26 03:23:11;;;;;;;8.77;5.50;;;1.60;99.90;;;;;;5013302;28;20200;-56
2022/02/26 03:25:39;;;;;;;10.07;5.50;;;1.60;99.90;;;;;;5016399;28;20645;-55
2022/02/26 03:28:06;;;;;;;15.37;6.10;;;1.80;99.90;;;;;;5012862;28;20201;-54
2022/02/26 03:30:33;;;;;;;8.90;4.80;;;1.90;99.90;;;;;;5014130;28;20230;-55
2022/02/26 03:33:00;;;;;;;10.50;5.30;;;1.90;99.90;;;;;;5021484;28;20208;-54
2022/02/26 03:35:27;;;;;;;17.27;6.43;;;1.70;99.90;;;;;;5021109;28;20670;-55
2022/02/26 03:37:54;;;;;;;14.13;6.10;;;1.60;99.90;;;;;;5033068;28;20209;-56
2022/02/26 03:40:21;;;;;;;14.33;6.23;;;1.70;99.90;;;;;;5021754;28;20220;-56
2022/02/26 03:42:49;;;;;;;11.83;5.77;;;1.80;99.90;;;;;;5021296;28;20192;-56
2022/02/26 03:45:17;;;;;;;19.03;6.57;;;1.80;99.90;;;;;;5018953;28;20200;-56
2022/02/26 03:47:43;;;;;;;13.63;6.30;;;1.80;99.90;;;;;;5017450;28;20637;-56
2022/02/26 03:50:11;;;;;;;10.80;6.17;;;1.90;99.90;;;;;;5023092;28;20307;-56
2022/02/26 03:52:39;;;;;;;13.57;6.57;;;1.80;99.90;;;;;;5018670;28;20234;-55
2022/02/26 03:55:07;;;;;;;10.60;6.27;;;1.80;99.90;;;;;;5020977;28;20205;-56
2022/02/26 03:57:34;;;;;;;16.60;6.67;;;1.80;99.90;;;;;;5026656;28;20759;-55
2022/02/26 04:00:04;;;;;;;13.13;6.03;;;1.90;99.90;;;;;;5024455;28;20350;-53
2022/02/26 04:02:31;;;;;;;15.53;7.20;;;1.80;99.90;;;;;;5022457;28;20804;-55
2022/02/26 04:04:58;;;;;;;12.83;6.50;;;1.80;99.90;;;;;;5024217;28;20205;-54
2022/02/26 04:07:25;;;;;;;14.40;6.20;;;1.90;99.90;;;;;;5024680;28;20328;-55
2022/02/26 04:09:52;;;;;;;16.70;6.43;;;2.00;99.90;;;;;;5025594;28;20220;-52
2022/02/26 04:12:19;;;;;;;14.43;6.23;;;2.30;99.90;;;;;;5018379;28;20219;-53
2022/02/26 04:14:46;;;;;;;10.53;5.87;;;2.40;99.90;;;;;;5023205;28;20836;-55
2022/02/26 04:17:12;;;;;;;14.63;6.73;;;2.40;99.90;;;;;;5018303;28;20318;-54
2022/02/26 04:19:39;;;;;;;14.20;7.30;;;2.20;99.90;;;;;;5020319;28;20278;-56
2022/02/26 04:22:06;;;;;;;10.80;5.90;;;2.30;99.90;;;;;;5018675;28;20217;-56
2022/02/26 04:24:33;;;;;;;12.63;6.07;;;2.40;99.90;;;;;;5022536;28;20196;-54
2022/02/26 04:27:00;;;;;;;9.60;6.57;;;2.50;99.90;;;;;;5020458;28;20205;-54
2022/02/26 04:29:27;;;;;;;14.20;6.17;;;2.40;99.90;;;;;;5018581;28;20213;-56
2022/02/26 04:31:54;;;;;;;12.90;5.97;;;2.30;99.90;;;;;;5018314;28;20634;-55
2022/02/26 04:34:21;;;;;;;15.43;6.27;;;2.40;99.90;;;;;;4991425;28;20299;-54
2022/02/26 04:36:48;;;;;;;9.33;5.77;;;2.50;99.90;;;;;;5015382;28;20237;-52
2022/02/26 04:39:15;;;;;;;13.90;5.20;;;2.40;99.90;;;;;;5015529;28;20301;-56
2022/02/26 04:41:42;;;;;;;11.17;5.77;;;2.20;99.90;;;;;;5014013;28;20311;-56
2022/02/26 04:44:09;;;;;;;13.77;6.13;;;2.20;99.90;;;;;;5018544;28;20317;-54
2022/02/26 04:46:36;;;;;;;12.50;6.40;;;2.40;99.90;;;;;;5016796;28;20267;-54
2022/02/26 04:49:03;;;;;;;13.47;7.37;;;2.50;99.90;;;;;;5017710;28;20207;-54
2022/02/26 04:51:29;;;;;;;19.13;6.73;;;2.60;99.90;;;;;;5016782;28;20340;-55
2022/02/26 04:53:56;;;;;;;14.23;5.40;;;2.60;99.90;;;;;;5018769;28;20756;-53
2022/02/26 04:56:23;;;;;;;14.97;6.33;;;2.60;99.90;;;;;;5026328;28;20296;-56
2022/02/26 04:58:50;;;;;;;12.47;5.73;;;2.50;99.90;;;;;;4997778;28;20275;-56
2022/02/26 05:01:17;;;;;;;15.67;6.47;;;2.40;99.90;;;;;;5019970;28;20801;-53
2022/02/26 05:03:44;;;;;;;11.87;5.73;;;2.40;99.90;;;;;;5018889;28;20674;-54
2022/02/26 05:06:10;;;;;;;18.23;5.73;;;2.50;99.90;;;;;;5017266;28;20206;-55
2022/02/26 05:08:37;;;;;;;10.13;5.37;;;2.60;99.90;;;;;;5014338;28;20275;-54
2022/02/26 05:11:04;;;;;;;9.97;5.50;;;2.60;99.90;;;;;;5016605;28;20619;-52
2022/02/26 05:13:31;;;;;;;16.83;5.87;;;2.50;99.90;;;;;;5015025;28;20308;-57
2022/02/26 05:15:58;;;;;;;15.80;6.03;;;2.50;99.90;;;;;;5008966;28;20275;-56
2022/02/26 05:18:25;;;;;;;11.33;6.13;;;2.40;99.90;;;;;;5016516;28;20307;-54
2022/02/26 05:20:51;;;;;;;15.73;5.97;;;2.40;99.90;;;;;;5018718;28;20217;-54
2022/02/26 05:23:18;;;;;;;11.20;5.63;;;2.50;99.90;;;;;;5015363;28;20284;-54
2022/02/26 05:25:45;;;;;;;16.30;7.03;;;2.40;99.90;;;;;;5016935;28;20206;-54
2022/02/26 05:28:12;;;;;;;8.67;5.70;;;2.40;99.90;;;;;;5019484;28;20650;-54
2022/02/26 05:30:39;;;;;;;14.43;5.93;;;2.40;99.90;;;;;;5017579;28;20290;-53
2022/02/26 05:33:07;;;;;;;10.17;5.77;;;2.40;99.90;;;;;;5017063;28;20210;-56
2022/02/26 05:35:34;;;;;;;9.60;5.60;;;2.30;99.90;;;;;;5016536;28;20309;-55
2022/02/26 05:38:00;;;;;;;13.00;6.47;;;2.30;99.90;;;;;;5032198;28;20213;-56
2022/02/26 05:40:27;;;;;;;13.23;5.80;;;2.20;99.90;;;;;;5014780;28;20285;-56
2022/02/26 05:42:54;;;;;;;8.27;6.30;;;2.30;99.90;;;;;;5016174;28;20883;-54
2022/02/26 05:45:21;;;;;;;14.20;6.03;;;2.30;99.90;;;;;;5016766;28;20678;-57
2022/02/26 05:47:48;;;;;;;15.37;5.77;;;2.30;99.90;;;;;;5015345;28;20229;-57
2022/02/26 05:50:15;;;;;;;11.27;5.70;;;2.30;99.90;;;;;;5017574;28;20202;-57
2022/02/26 05:52:42;;;;;;;10.13;5.97;;;2.40;99.90;;;;;;5015673;28;20645;-55
2022/02/26 05:55:10;;;;;;;10.37;5.13;;;2.30;99.90;;;;;;5019449;28;20251;-55
2022/02/26 05:57:37;;;;;;;13.27;6.37;;;2.20;99.90;;;;;;5019753;28;20248;-53
2022/02/26 06:00:05;;;;;;;11.00;5.20;;;2.20;99.90;;;;;;5016030;28;20920;-55
2022/02/26 06:02:33;;;;;;;15.33;5.93;;;2.20;99.90;;;;;;5011086;28;20327;-53
2022/02/26 06:05:00;;;;;;;10.23;6.03;;;2.20;99.90;;;;;;5016457;28;20602;-56
2022/02/26 06:07:27;;;;;;;14.97;5.90;;;2.20;99.90;;;;;;5016384;28;20271;-58
2022/02/26 06:09:53;;;;;;;10.60;5.93;;;2.20;99.90;;;;;;5014386;28;20251;-55
2022/02/26 06:12:20;;;;;;;10.27;5.73;;;2.20;99.90;;;;;;5014668;28;20210;-54
2022/02/26 06:14:47;;;;;;;14.07;6.53;;;2.30;99.90;;;;;;5018011;28;20540;-53
2022/02/26 06:17:14;;;;;;;11.40;5.87;;;2.20;99.90;;;;;;5015403;28;20311;-53
2022/02/26 06:19:41;;;;;;;15.33;5.90;;;2.20;99.90;;;;;;5012112;28;20322;-54
2022/02/26 06:22:08;;;;;;;14.90;6.40;;;2.20;99.90;;;;;;5015289;28;20217;-54
2022/02/26 06:24:35;;;;;;;9.30;5.47;;;2.10;99.90;;;;;;5014944;28;20204;-56
2022/02/26 06:27:02;;;;;;;10.43;5.40;;;2.10;99.90;;;;;;5016849;28;20200;-56
2022/02/26 06:29:29;;;;;;;11.40;5.67;;;2.10;99.90;;;;;;5027123;28;20241;-55
2022/02/26 06:31:56;;;;;;;7.67;4.80;;;2.20;99.90;;;;;;5014809;28;20211;-57
2022/02/26 06:34:24;;;;;;;7.17;4.27;;;2.20;99.90;;;;;;5016098;28;20375;-56
2022/02/26 06:36:51;;;;;;;8.87;4.27;;;2.00;99.90;;;;;;5015554;28;20201;-53
2022/02/26 06:39:18;;;;;;;7.87;4.00;;;1.90;99.90;;;;;;5016418;28;20606;-55
2022/02/26 06:41:45;;;;;;;4.13;3.70;;;1.80;99.90;;;;;;5015778;28;20315;-54
2022/02/26 06:44:11;;;;;;;5.20;3.40;;;1.90;99.90;;;;;;5020550;28;20229;-55
2022/02/26 06:46:39;;;;;;;3.53;3.23;;;1.70;99.90;;;;;;5015614;28;20237;-54
2022/02/26 06:49:07;;;;;;;4.33;3.87;;;1.80;99.90;;;;;;5018143;28;20669;-53
2022/02/26 06:51:36;;;;;;;4.20;3.73;;;1.90;99.90;;;;;;5018896;28;20684;-55
2022/02/26 06:54:03;;;;;;;5.23;3.70;;;1.90;99.90;;;;;;5020065;28;20204;-56
2022/02/26 06:56:32;;;;;;;5.33;3.97;;;1.90;99.90;;;;;;5021265;28;20609;-53
2022/02/26 06:58:59;;;;;;;7.27;4.40;;;1.90;99.90;;;;;;5020172;28;20546;-54
2022/02/26 07:01:26;;;;;;;6.33;4.60;;;2.00;99.90;;;;;;5012711;28;20335;-55
2022/02/26 07:03:53;;;;;;;6.43;4.60;;;2.10;99.90;;;;;;5019540;28;20208;-55
2022/02/26 07:06:25;;;;;;;7.10;4.33;;;2.10;99.90;;;;;;5027053;28;20711;-55
2022/02/26 07:08:53;;;;;;;9.60;4.60;;;2.10;99.90;;;;;;5021074;28;20279;-53
2022/02/26 07:11:20;;;;;;;8.00;4.73;;;2.10;99.90;;;;;;5011948;28;20201;-53
2022/02/26 07:13:47;;;;;;;7.37;4.27;;;2.20;99.90;;;;;;5023368;28;20287;-55
2022/02/26 07:16:14;;;;;;;6.17;4.57;;;2.20;99.90;;;;;;5026030;28;20661;-53
2022/02/26 07:18:41;;;;;;;8.27;5.00;;;2.30;99.90;;;;;;5023374;28;20626;-55
2022/02/26 07:21:08;;;;;;;5.93;4.63;;;2.30;99.90;;;;;;5023052;28;21907;-55
2022/02/26 07:23:35;;;;;;;10.07;5.17;;;2.40;99.90;;;;;;5028003;28;20307;-55
2022/02/26 07:26:03;;;;;;;11.87;5.43;;;2.60;99.90;;;;;;5031865;28;20253;-54
2022/02/26 07:28:30;;;;;;;5.97;5.03;;;2.70;99.90;;;;;;5030704;28;20874;-55
2022/02/26 07:30:57;;;;;;;7.47;5.13;;;2.80;99.90;;;;;;5030085;28;20208;-57
2022/02/26 07:33:23;;;;;;;10.43;5.17;;;2.90;99.90;;;;;;5025216;28;20204;-54
2022/02/26 07:35:50;;;;;;;8.83;5.27;;;3.00;99.90;;;;;;5033342;28;20205;-55
2022/02/26 07:38:17;;;;;;;11.37;5.60;;;3.10;99.90;;;;;;5028757;28;20603;-56
2022/02/26 07:40:44;;;;;;;10.77;5.70;;;3.20;99.90;;;;;;5027086;28;20660;-54
2022/02/26 07:43:11;;;;;;;8.70;5.57;;;3.40;99.90;;;;;;5023358;28;20217;-57
2022/02/26 07:45:38;;;;;;;8.77;5.13;;;3.50;99.90;;;;;;5024295;28;20689;-56
2022/02/26 07:48:05;;;;;;;9.07;6.37;;;3.70;99.90;;;;;;5016549;28;20656;-53
2022/02/26 07:50:32;;;;;;;12.07;6.90;;;3.80;99.90;;;;;;5021237;28;20329;-54
2022/02/26 07:52:59;;;;;;;7.70;6.03;;;4.00;99.90;;;;;;5023611;28;20250;-53
2022/02/26 07:55:26;;;;;;;15.47;6.37;;;4.20;99.90;;;;;;5022770;28;20208;-56
2022/02/26 07:57:53;;;;;;;14.40;7.90;;;4.50;99.90;;;;;;5005825;28;20340;-55
2022/02/26 08:00:20;;;;;;;10.63;5.80;;;4.80;99.90;;;;;;5016321;28;20214;-56
2022/02/26 08:02:49;;;;;;;13.40;5.83;;;4.90;99.90;;;;;;5018001;28;21229;-53
2022/02/26 08:05:17;;;;;;;7.73;6.17;;;5.00;99.90;;;;;;5014573;28;20197;-57
2022/02/26 08:07:45;;;;;;;11.53;6.00;;;5.30;99.90;;;;;;5014319;28;20254;-54
2022/02/26 08:10:12;;;;;;;11.43;6.23;;;5.50;99.90;;;;;;5015639;28;20270;-55
2022/02/26 08:12:40;;;;;;;7.97;5.77;;;5.60;99.90;;;;;;5010352;28;20211;-57
2022/02/26 08:15:07;;;;;;;10.20;5.80;;;5.90;99.90;;;;;;5010205;28;20203;-55
2022/02/26 08:17:34;;;;;;;8.77;6.27;;;6.30;99.90;;;;;;5019392;28;20206;-55
2022/02/26 08:20:03;;;;;;;9.47;5.40;;;6.10;6.10;;;;;;5017917;28;20217;-55
2022/02/26 08:22:29;;;;;;;8.13;5.47;;;6.10;13.50;;;;;;5024185;28;20620;-56
2022/02/26 08:24:56;;;;;;;8.47;5.20;;;6.20;1.00;;;;;;5036194;28;20904;-57
2022/02/26 08:27:23;;;;;;;11.70;6.37;;;6.60;1.00;;;;;;5019676;28;20200;-55
2022/02/26 08:29:50;;;;;;;9.03;5.83;;;6.90;1.00;;;;;;5017924;28;20211;-55
2022/02/26 08:32:17;;;;;;;13.30;6.60;;;7.10;1.00;;;;;;5030245;28;20249;-55
2022/02/26 08:34:44;;;;;;;9.33;6.00;;;7.50;1.00;;;;;;5034329;28;20348;-56
2022/02/26 08:37:10;;;;;;;10.57;5.47;;;8.00;1.00;;;;;;5034696;28;20697;-55
2022/02/26 08:39:38;;;;;;;11.77;5.70;;;8.30;1.00;;;;;;5032910;28;20204;-55
2022/02/26 08:42:06;;;;;;;14.30;7.23;;;8.60;1.00;;;;;;5032711;28;20236;-55
2022/02/26 08:44:33;;;;;;;13.07;5.80;;;8.50;99.90;;;;;;5033552;28;20203;-55
2022/02/26 08:47:02;;;;;;;10.47;6.50;;;8.70;99.90;;;;;;5031108;28;20196;-56
2022/02/26 08:49:29;;;;;;;10.57;5.77;;;8.80;56.60;;;;;;5030580;28;20197;-55
2022/02/26 08:51:57;;;;;;;9.03;5.33;;;8.50;90.20;;;;;;5033644;28;20214;-58
2022/02/26 08:54:29;;;;;;;13.07;6.00;;;8.90;99.90;;;;;;5033127;28;20204;-55
2022/02/26 08:56:56;;;;;;;10.63;5.03;;;9.30;1.00;;;;;;5034209;28;20292;-57
2022/02/26 08:59:23;;;;;;;11.60;5.73;;;9.20;99.90;;;;;;5029535;28;20208;-56
2022/02/26 09:01:50;;;;;;;7.70;5.47;;;9.30;1.00;;;;;;5032360;28;20241;-55
2022/02/26 09:04:17;;;;;;;12.70;6.03;;;9.80;1.00;;;;;;5030526;28;20200;-54
2022/02/26 09:06:44;;;;;;;10.83;5.77;;;9.90;1.00;;;;;;5032658;28;20276;-54
2022/02/26 09:09:11;;;;;;;7.57;6.20;;;9.80;1.00;;;;;;5032072;28;20249;-54
2022/02/26 09:11:38;;;;;;;13.67;6.90;;;9.70;99.90;;;;;;5031005;28;20239;-54
2022/02/26 09:14:06;;;;;;;8.53;5.67;;;9.70;1.00;;;;;;5031102;28;20285;-54
2022/02/26 09:16:32;;;;;;;14.33;6.17;;;10.10;99.90;;;;;;5032631;28;20244;-54
2022/02/26 09:19:00;;;;;;;13.30;6.23;;;10.00;1.00;;;;;;5027170;28;20287;-55
2022/02/26 09:21:27;;;;;;;12.97;6.40;;;10.10;1.00;;;;;;5032504;28;20295;-54
2022/02/26 09:23:54;;;;;;;15.40;6.83;;;10.50;1.00;;;;;;5031521;28;20625;-55
2022/02/26 09:26:21;;;;;;;8.37;5.63;;;10.80;1.00;;;;;;5033074;28;20206;-55
2022/02/26 09:28:48;;;;;;;14.10;6.40;;;10.60;1.00;;;;;;5029663;28;20289;-55
2022/02/26 09:31:15;;;;;;;11.77;5.83;;;11.10;99.90;;;;;;5032340;28;20300;-55
2022/02/26 09:33:42;;;;;;;9.67;5.80;;;11.00;1.00;;;;;;5031399;28;20922;-56
2022/02/26 09:36:10;;;;;;;10.57;5.70;;;11.20;99.90;;;;;;5032203;28;20294;-54
2022/02/26 09:38:38;;;;;;;10.40;6.10;;;11.40;1.00;;;;;;5032848;28;20383;-55
2022/02/26 09:41:06;;;;;;;15.87;5.50;;;11.50;1.00;;;;;;5022649;28;20234;-54
2022/02/26 09:43:33;;;;;;;13.93;5.70;;;11.50;90.20;;;;;;5032048;28;20220;-57
2022/02/26 09:46:03;;;;;;;16.13;5.90;;;11.60;99.90;;;;;;5032204;28;20212;-58
2022/02/26 09:48:31;;;;;;;17.33;5.33;;;11.70;99.90;;;;;;5027863;28;20204;-56
2022/02/26 09:50:58;;;;;;;10.23;5.30;;;11.60;93.90;;;;;;5029528;28;20203;-55
2022/02/26 09:53:26;;;;;;;13.70;5.80;;;11.40;99.90;;;;;;5032247;28;20297;-55
2022/02/26 09:55:54;;;;;;;13.93;6.60;;;11.60;1.00;;;;;;5029045;28;20219;-55
2022/02/26 09:58:21;;;;;;;12.53;6.33;;;11.50;1.00;;;;;;5030226;28;20551;-56
2022/02/26 10:00:48;;;;;;;14.03;5.90;;;11.60;1.00;;;;;;5023452;28;20620;-57
2022/02/26 10:03:30;;;;;;;17.93;6.37;;;11.80;1.00;;;;;;5028313;28;20334;-55
2022/02/26 10:06:16;;;;;;;15.30;6.23;;;11.90;99.90;;;;;;5020170;28;20208;-56
2022/02/26 10:08:47;;;;;;;16.97;6.23;;;11.90;1.00;;;;;;5031249;28;20249;-56
2022/02/26 10:11:25;;;;;;;11.40;5.90;;;11.80;1.00;;;;;;5012764;28;20648;-56
2022/02/26 10:14:05;;;;;;;18.23;7.63;;;11.70;1.00;;;;;;5030243;28;20203;-55
2022/02/26 10:16:50;;;;;;;14.23;5.90;;;11.50;99.90;;;;;;5030967;28;20210;-57
2022/02/26 10:19:33;;;;;;;15.33;6.77;;;11.40;1.00;;;;;;5028773;28;20206;-54
2022/02/26 10:22:07;;;;;;;10.37;4.53;;;11.60;1.00;;;;;;5031084;28;20865;-54
2022/02/26 10:24:36;;;;;;;13.50;4.60;;;11.50;1.00;;;;;;5018665;28;20242;-55
2022/02/26 10:27:10;;;;;;;9.40;4.87;;;10.60;99.90;;;;;;5032617;28;20203;-56
2022/02/26 10:29:39;;;;;;;11.43;3.83;;;11.40;99.90;;;;;;5030442;28;20210;-54
2022/02/26 10:32:08;;;;;;;15.93;5.00;;;11.00;1.00;;;;;;5031940;28;20205;-59
2022/02/26 10:34:38;;;;;;;12.40;5.97;;;10.50;1.00;;;;;;5033437;28;20660;-54
2022/02/26 10:37:05;;;;;;;12.57;4.70;;;10.30;1.00;;;;;;5028376;28;20250;-56
2022/02/26 10:39:54;;;;;;;10.20;4.67;;;10.80;1.00;;;;;;5029415;28;20617;-54
2022/02/26 10:42:22;;;;;;;11.97;4.27;;;10.80;1.00;;;;;;5033357;28;20214;-54
2022/02/26 10:45:25;;;;;;;11.53;3.57;;;11.10;99.90;;;;;;5033133;28;20286;-54
2022/02/26 10:47:58;;;;;;;10.30;3.50;;;10.10;23.50;;;;;;5011187;28;20207;-55
2022/02/26 10:50:25;;;;;;;17.93;3.97;;;9.60;99.90;;;;;;5012535;28;20284;-55
2022/02/26 10:52:57;;;;;;;10.10;3.23;;;9.50;99.90;;;;;;5013341;28;20212;-56
2022/02/26 10:55:58;;;;;;;9.23;3.40;;;10.00;99.90;;;;;;5009648;28;20691;-54
2022/02/26 10:58:27;;;;;;;11.03;3.13;;;10.20;1.00;;;;;;5010337;28;20206;-54
2022/02/26 11:01:09;;;;;;;11.27;2.87;;;10.60;1.00;;;;;;5013078;28;20207;-54
2022/02/26 11:03:39;;;;;;;11.03;3.97;;;10.20;1.00;;;;;;5011991;28;20235;-55
2022/02/26 11:06:11;;;;;;;11.83;3.93;;;9.40;99.90;;;;;;5014019;28;20582;-55
2022/02/26 11:08:42;;;;;;;8.27;3.87;;;10.00;99.90;;;;;;5014607;28;20674;-55
2022/02/26 11:11:09;;;;;;;11.27;3.77;;;10.50;99.90;;;;;;5011982;28;20231;-54
2022/02/26 11:13:37;;;;;;;7.93;3.80;;;10.60;99.90;;;;;;5012856;28;20201;-55
2022/02/26 11:16:06;;;;;;;10.40;5.03;;;10.20;92.80;;;;;;5014865;28;20311;-55
2022/02/26 11:18:42;;;;;;;10.97;4.80;;;10.20;1.00;;;;;;5003455;28;20734;-56
2022/02/26 11:21:17;;;;;;;14.07;4.87;;;9.80;99.90;;;;;;5012826;28;20301;-54
2022/02/26 11:23:46;;;;;;;10.90;4.60;;;10.00;1.00;;;;;;5024870;28;20229;-56
2022/02/26 11:26:15;;;;;;;11.67;4.50;;;9.70;1.00;;;;;;5004361;28;20293;-56
2022/02/26 11:28:50;;;;;;;9.17;4.57;;;9.90;1.00;;;;;;5019509;28;20401;-57
2022/02/26 11:31:24;;;;;;;10.90;4.43;;;10.00;99.90;;;;;;5022445;28;20894;-56
2022/02/26 11:33:52;;;;;;;7.83;3.83;;;10.60;99.90;;;;;;5024381;28;20616;-57
2022/02/26 11:36:19;;;;;;;11.83;3.80;;;10.60;99.90;;;;;;5025224;28;20212;-57
2022/02/26 11:38:47;;;;;;;9.43;4.23;;;10.10;1.00;;;;;;5014707;28;20202;-57
2022/02/26 11:41:28;;;;;;;11.73;5.20;;;9.90;1.00;;;;;;5024383;28;20580;-56
2022/02/26 11:43:58;;;;;;;11.87;4.50;;;10.70;36.80;;;;;;5023342;28;20314;-56
2022/02/26 11:46:32;;;;;;;16.83;4.93;;;11.00;1.00;;;;;;5027551;28;20253;-57
2022/02/26 11:49:11;;;;;;;14.33;3.50;;;10.90;99.90;;;;;;5019227;28;20215;-55
2022/02/26 11:51:42;;;;;;;15.30;3.47;;;11.00;99.90;;;;;;5028722;28;20260;-55
2022/02/26 11:54:13;;;;;;;8.87;3.23;;;10.70;1.00;;;;;;5037514;28;20615;-55
2022/02/26 11:56:58;;;;;;;6.73;2.47;;;11.30;99.90;;;;;;5035042;28;20238;-56
2022/02/26 11:59:35;;;;;;;8.73;3.17;;;11.10;1.00;;;;;;5024492;28;20663;-57
2022/02/26 12:02:04;;;;;;;9.57;3.43;;;11.20;1.00;;;;;;5027355;28;20318;-58
2022/02/26 12:04:44;;;;;;;17.53;3.67;;;11.60;1.00;;;;;;5023982;28;20212;-54
2022/02/26 12:07:31;;;;;;;9.60;3.30;;;11.80;1.00;;;;;;5025908;28;20210;-55
2022/02/26 12:10:07;;;;;;;5.30;3.10;;;11.70;99.90;;;;;;5026635;28;20765;-54
2022/02/26 12:12:39;;;;;;;10.23;3.27;;;11.40;99.90;;;;;;5032918;28;20469;-55
2022/02/26 12:15:21;;;;;;;9.03;2.90;;;10.80;99.90;;;;;;5015038;28;20226;-54
2022/02/26 12:17:54;;;;;;;10.87;3.63;;;10.90;99.90;;;;;;5024388;28;20265;-54
2022/02/26 12:20:31;;;;;;;10.10;3.20;;;11.60;99.90;;;;;;5031071;28;20215;-55
2022/02/26 12:23:13;;;;;;;14.23;3.57;;;11.50;99.90;;;;;;5049002;28;20306;-54
2022/02/26 12:25:44;;;;;;;11.57;2.97;;;10.80;1.00;;;;;;5034303;28;20243;-54
2022/02/26 12:28:14;;;;;;;7.27;2.40;;;10.70;1.00;;;;;;5036049;28;20265;-56
2022/02/26 12:30:51;;;;;;;9.87;2.60;;;10.80;1.00;;;;;;5019454;28;20315;-54
2022/02/26 12:33:19;;;;;;;7.60;3.10;;;10.60;1.00;;;;;;5032457;28;20213;-57
2022/02/26 12:35:46;;;;;;;9.57;2.37;;;11.10;1.00;;;;;;5038042;28;20653;-54
2022/02/26 12:38:25;;;;;;;11.10;2.00;;;10.60;1.00;;;;;;5036204;28;20220;-54
2022/02/26 12:40:56;;;;;;;8.57;1.80;;;10.30;99.90;;;;;;5036054;28;20270;-55
2022/02/26 12:43:28;;;;;;;7.47;2.17;;;10.20;1.00;;;;;;5032692;28;20222;-55
2022/02/26 12:45:56;;;;;;;8.47;2.37;;;10.10;99.90;;;;;;5037755;28;20197;-56
2022/02/26 12:48:24;;;;;;;6.90;2.07;;;9.80;99.90;;;;;;5033396;28;20212;-56
2022/02/26 12:50:50;;;;;;;8.20;1.60;;;10.20;1.00;;;;;;5034430;28;20232;-56
2022/02/26 12:53:21;;;;;;;7.53;2.10;;;10.90;1.00;;;;;;5033572;28;20210;-55
2022/02/26 12:55:47;;;;;;;10.50;3.03;;;11.20;1.00;;;;;;5036014;28;20579;-55